createdAt,value
2022-10-23T00:01:27.071Z,7.00
2022-10-23T00:03:58.103Z,7.10
2022-10-23T00:06:26.811Z,6.78
2022-10-23T00:08:53.408Z,6.82
2022-10-23T00:11:23.796Z,6.22
2022-10-23T00:13:53.447Z,6.38
2022-10-23T00:16:20.139Z,6.22
2022-10-23T00:18:46.842Z,6.80
2022-10-23T00:21:15.648Z,6.43
2022-10-23T00:23:43.536Z,7.18
2022-10-23T00:26:16.497Z,6.97
2022-10-23T00:28:49.833Z,7.00
2022-10-23T00:31:17.360Z,7.35
2022-10-23T00:33:44.816Z,6.38
2022-10-23T00:36:14.286Z,7.53
2022-10-23T00:38:40.995Z,10.68
2022-10-23T00:41:20.220Z,15.27
2022-10-23T00:44:07.103Z,9.43
2022-10-23T00:46:34.821Z,8.40
2022-10-23T00:49:02.623Z,8.02
2022-10-23T00:51:33.790Z,8.10
2022-10-23T00:54:22.855Z,10.30
2022-10-23T00:56:49.633Z,11.15
2022-10-23T00:59:16.354Z,15.38
2022-10-23T01:01:43.248Z,14.02
2022-10-23T01:04:10.935Z,11.73
2022-10-23T01:06:57.707Z,11.30
2022-10-23T01:09:31.174Z,13.73
2022-10-23T01:12:03.188Z,11.77
2022-10-23T01:14:40.532Z,10.75
2022-10-23T01:17:19.279Z,10.45
2022-10-23T01:19:55.292Z,10.88
2022-10-23T01:22:43.787Z,11.68
2022-10-23T01:25:41.645Z,11.60
2022-10-23T01:28:16.211Z,11.93
2022-10-23T01:30:45.693Z,10.57
2022-10-23T01:33:21.755Z,12.50
2022-10-23T01:36:04.659Z,10.48
2022-10-23T01:38:56.389Z,11.23
2022-10-23T01:41:26.069Z,13.75
2022-10-23T01:43:59.425Z,12.40
2022-10-23T01:46:28.491Z,12.30
2022-10-23T01:48:57.592Z,11.80
2022-10-23T01:51:27.320Z,10.70
2022-10-23T01:53:59.371Z,11.68
2022-10-23T01:56:33.781Z,11.50
2022-10-23T01:59:05.691Z,12.52
2022-10-23T02:01:35.139Z,11.45
2022-10-23T02:04:07.070Z,12.50
2022-10-23T02:06:33.792Z,10.55
2022-10-23T02:09:00.462Z,10.35
2022-10-23T02:11:27.201Z,10.60
2022-10-23T02:14:03.991Z,8.75
2022-10-23T02:16:30.554Z,9.10
2022-10-23T02:18:59.874Z,8.48
2022-10-23T02:21:38.611Z,8.50
2022-10-23T02:24:13.820Z,9.75
2022-10-23T02:26:45.998Z,12.38
2022-10-23T02:29:36.777Z,10.13
2022-10-23T02:32:04.701Z,11.00
2022-10-23T02:34:31.576Z,12.43
2022-10-23T02:36:58.187Z,8.45
2022-10-23T02:39:28.378Z,8.10
2022-10-23T02:42:32.394Z,8.93
2022-10-23T02:45:36.711Z,10.25
2022-10-23T02:48:15.347Z,8.02
2022-10-23T02:50:49.396Z,8.30
2022-10-23T02:54:00.552Z,11.25
2022-10-23T02:56:32.618Z,9.15
2022-10-23T02:59:09.891Z,12.07
2022-10-23T03:01:49.066Z,9.93
2022-10-23T03:04:17.774Z,9.00
2022-10-23T03:06:45.193Z,13.35
2022-10-23T03:09:11.820Z,11.65
2022-10-23T03:11:38.420Z,9.38
2022-10-23T03:14:05.060Z,10.98
2022-10-23T03:16:31.671Z,10.13
2022-10-23T03:18:58.378Z,9.85
2022-10-23T03:21:25.131Z,8.35
2022-10-23T03:23:51.858Z,11.55
2022-10-23T03:26:18.443Z,8.55
2022-10-23T03:28:45.085Z,8.50
2022-10-23T03:31:11.759Z,8.88
2022-10-23T03:33:38.526Z,8.23
2022-10-23T03:36:05.948Z,7.55
2022-10-23T03:38:33.036Z,8.45
2022-10-23T03:40:59.646Z,8.23
2022-10-23T03:43:26.258Z,9.30
2022-10-23T03:45:52.936Z,10.35
2022-10-23T03:48:19.517Z,11.40
2022-10-23T03:50:46.146Z,10.48
2022-10-23T03:53:12.766Z,11.73
2022-10-23T03:55:39.440Z,11.18
2022-10-23T03:58:06.024Z,10.43
2022-10-23T04:00:32.750Z,9.30
2022-10-23T04:02:59.379Z,9.48
2022-10-23T04:05:26.035Z,9.95
2022-10-23T04:07:53.183Z,11.13
2022-10-23T04:10:19.815Z,10.48
2022-10-23T04:12:46.415Z,8.45
2022-10-23T04:15:13.034Z,8.82
2022-10-23T04:17:39.694Z,9.70
2022-10-23T04:20:06.501Z,9.48
2022-10-23T04:22:33.972Z,7.80
2022-10-23T04:25:03.999Z,8.95
2022-10-23T04:27:30.636Z,11.90
2022-10-23T04:29:59.091Z,11.55
2022-10-23T04:32:26.210Z,13.60
2022-10-23T04:34:52.822Z,9.85
2022-10-23T04:37:19.793Z,8.93
2022-10-23T04:39:49.380Z,9.15
2022-10-23T04:42:16.008Z,10.40
2022-10-23T04:44:42.661Z,10.75
2022-10-23T04:47:09.263Z,10.93
2022-10-23T04:49:35.855Z,11.32
2022-10-23T04:52:02.649Z,12.32
2022-10-23T04:54:29.215Z,11.95
2022-10-23T04:56:55.824Z,10.05
2022-10-23T04:59:22.475Z,10.57
2022-10-23T05:01:49.099Z,9.75
2022-10-23T05:04:15.732Z,9.18
2022-10-23T05:06:43.593Z,8.50
2022-10-23T05:09:10.241Z,9.93
2022-10-23T05:11:36.903Z,8.32
2022-10-23T05:14:03.510Z,7.93
2022-10-23T05:16:42.424Z,8.30
2022-10-23T05:19:13.078Z,7.88
2022-10-23T05:21:42.614Z,7.63
2022-10-23T05:24:10.691Z,7.05
2022-10-23T05:26:37.468Z,7.50
2022-10-23T05:29:04.063Z,6.43
2022-10-23T05:31:32.000Z,7.10
2022-10-23T05:33:58.591Z,8.52
2022-10-23T05:36:26.080Z,6.13
2022-10-23T05:38:53.497Z,7.47
2022-10-23T05:41:21.064Z,6.53
2022-10-23T05:43:47.962Z,6.20
2022-10-23T05:46:14.613Z,8.90
2022-10-23T05:48:41.267Z,6.28
2022-10-23T05:51:10.297Z,6.80
2022-10-23T05:53:40.132Z,5.67
2022-10-23T05:56:09.676Z,6.60
2022-10-23T05:58:36.753Z,6.90
2022-10-23T06:01:08.895Z,5.82
2022-10-23T06:03:36.507Z,6.53
2022-10-23T06:06:04.010Z,7.70
2022-10-23T06:08:32.367Z,7.15
2022-10-23T06:10:59.618Z,6.30
2022-10-23T06:13:26.184Z,6.53
2022-10-23T06:15:52.760Z,6.32
2022-10-23T06:18:19.612Z,6.93
2022-10-23T06:20:46.220Z,8.27
2022-10-23T06:23:12.870Z,6.68
2022-10-23T06:25:40.395Z,8.00
2022-10-23T06:28:06.976Z,6.82
2022-10-23T06:30:33.650Z,7.57
2022-10-23T06:33:03.261Z,7.68
2022-10-23T06:35:32.827Z,7.18
2022-10-23T06:37:59.415Z,6.95
2022-10-23T06:40:26.194Z,7.03
2022-10-23T06:42:52.811Z,6.47
2022-10-23T06:45:19.407Z,7.32
2022-10-23T06:47:46.296Z,7.90
2022-10-23T06:50:15.502Z,8.23
2022-10-23T06:52:47.058Z,8.43
2022-10-23T06:55:14.972Z,8.02
2022-10-23T06:57:42.274Z,8.98
2022-10-23T07:00:13.114Z,8.68
2022-10-23T07:02:39.881Z,7.43
2022-10-23T07:05:08.818Z,7.05
2022-10-23T07:07:39.343Z,7.18
2022-10-23T07:10:06.777Z,7.72
2022-10-23T07:12:33.592Z,8.07
2022-10-23T07:15:00.206Z,7.45
2022-10-23T07:17:30.796Z,7.30
2022-10-23T07:19:57.550Z,7.20
2022-10-23T07:22:24.148Z,7.68
2022-10-23T07:24:50.788Z,7.57
2022-10-23T07:27:17.499Z,8.27
2022-10-23T07:29:44.103Z,7.47
2022-10-23T07:32:11.497Z,6.43
2022-10-23T07:34:38.280Z,6.63
2022-10-23T07:37:04.912Z,6.95
2022-10-23T07:39:31.572Z,7.55
2022-10-23T07:41:58.233Z,7.50
2022-10-23T07:44:27.638Z,7.45
2022-10-23T07:46:54.570Z,7.30
2022-10-23T07:49:21.135Z,7.13
2022-10-23T07:51:51.280Z,5.95
2022-10-23T07:54:18.751Z,6.95
2022-10-23T07:56:45.431Z,9.68
2022-10-23T07:59:13.296Z,10.18
2022-10-23T08:01:42.588Z,10.20
2022-10-23T08:04:10.743Z,8.98
2022-10-23T08:06:37.447Z,9.82
2022-10-23T08:09:06.532Z,9.32
2022-10-23T08:11:35.751Z,7.63
2022-10-23T08:14:04.766Z,7.17
2022-10-23T08:16:34.952Z,6.85
2022-10-23T08:19:02.126Z,9.23
2022-10-23T08:21:30.060Z,8.02
2022-10-23T08:23:58.629Z,7.55
2022-10-23T08:26:29.323Z,7.80
2022-10-23T08:28:58.458Z,7.47
2022-10-23T08:31:25.466Z,6.38
2022-10-23T08:33:52.076Z,7.43
2022-10-23T08:36:22.035Z,8.60
2022-10-23T08:38:49.369Z,7.53
2022-10-23T08:41:38.775Z,6.50
2022-10-23T08:44:31.028Z,7.68
2022-10-23T08:47:03.824Z,7.85
2022-10-23T08:49:42.288Z,7.18
2022-10-23T08:52:32.001Z,9.10
2022-10-23T08:55:29.292Z,7.93
2022-10-23T08:57:59.339Z,8.93
2022-10-23T09:00:28.224Z,6.70
2022-10-23T09:02:55.612Z,7.97
2022-10-23T09:05:31.800Z,7.68
2022-10-23T09:08:42.823Z,8.73
2022-10-23T09:11:19.567Z,10.40
2022-10-23T09:14:02.495Z,9.60
2022-10-23T09:16:41.007Z,8.68
2022-10-23T09:19:19.492Z,7.43
2022-10-23T09:21:49.953Z,6.72
2022-10-23T09:24:19.569Z,7.43
2022-10-23T09:26:50.517Z,6.80
2022-10-23T09:29:31.906Z,7.47
2022-10-23T09:32:00.971Z,7.47
2022-10-23T09:34:29.997Z,7.93
2022-10-23T09:37:27.760Z,6.95
2022-10-23T09:40:27.337Z,7.32
2022-10-23T09:43:00.780Z,6.90
2022-10-23T09:45:33.213Z,7.68
2022-10-23T09:48:05.895Z,6.35
2022-10-23T09:50:32.526Z,8.40
2022-10-23T09:52:59.546Z,14.88
2022-10-23T09:55:27.912Z,9.02
2022-10-23T09:57:55.644Z,9.00
2022-10-23T10:00:28.771Z,8.52
2022-10-23T10:03:04.787Z,9.07
2022-10-23T10:05:34.119Z,60.90
2022-10-23T10:08:08.006Z,38.92
2022-10-23T10:10:48.154Z,30.90
2022-10-23T10:13:38.277Z,11.73
2022-10-23T10:16:16.299Z,15.32
2022-10-23T10:18:48.815Z,31.85
2022-10-23T10:24:06.904Z,12.13
2022-10-23T10:26:41.659Z,22.52
2022-10-23T10:29:34.531Z,19.52
2022-10-23T10:32:37.939Z,12.55
2022-10-23T10:35:16.683Z,13.70
2022-10-23T10:37:54.562Z,15.25
2022-10-23T10:40:35.441Z,9.85
2022-10-23T10:43:13.911Z,8.80
2022-10-23T10:46:11.032Z,7.20
2022-10-23T10:48:49.534Z,8.57
2022-10-23T10:51:32.942Z,10.40
2022-10-23T10:54:18.960Z,8.40
2022-10-23T10:56:47.685Z,10.45
2022-10-23T10:59:30.512Z,8.15
2022-10-23T11:02:12.735Z,10.48
2022-10-23T11:05:18.020Z,13.48
2022-10-23T11:08:00.599Z,6.60
2022-10-23T11:10:28.964Z,8.15
2022-10-23T11:12:56.947Z,11.65
2022-10-23T11:15:29.140Z,10.73
2022-10-23T11:18:01.955Z,6.95
2022-10-23T11:20:58.107Z,6.13
2022-10-23T11:23:55.611Z,6.50
2022-10-23T11:26:35.263Z,6.63
2022-10-23T11:31:54.346Z,6.70
2022-10-23T11:34:35.878Z,6.20
2022-10-23T11:37:12.231Z,6.10
2022-10-23T11:39:39.693Z,6.45
2022-10-23T11:42:06.288Z,6.75
2022-10-23T11:44:46.519Z,6.32
2022-10-23T11:47:40.051Z,6.05
2022-10-23T11:50:07.711Z,5.90
2022-10-23T11:52:50.316Z,6.10
2022-10-23T11:55:20.946Z,6.40
2022-10-23T11:58:12.247Z,6.32
2022-10-23T12:00:51.536Z,5.70
2022-10-23T12:03:26.118Z,6.22
2022-10-23T12:06:07.319Z,5.97
2022-10-23T12:08:37.725Z,6.03
2022-10-23T12:11:04.390Z,6.10
2022-10-23T12:13:38.193Z,6.60
2022-10-23T12:16:07.543Z,7.10
2022-10-23T12:18:46.438Z,7.80
2022-10-23T12:21:22.758Z,8.13
2022-10-23T12:24:39.919Z,8.18
2022-10-23T12:27:09.567Z,7.45
2022-10-23T12:32:22.272Z,9.00
2022-10-23T12:35:03.831Z,8.43
2022-10-23T12:38:05.538Z,7.63
2022-10-23T12:40:32.398Z,6.47
2022-10-23T12:43:01.039Z,7.53
2022-10-23T12:45:31.978Z,6.60
2022-10-23T12:47:58.581Z,6.45
2022-10-23T12:50:34.568Z,7.38
2022-10-23T12:53:03.996Z,8.00
2022-10-23T12:55:46.393Z,9.35
2022-10-23T12:58:32.006Z,9.10
2022-10-23T13:01:01.656Z,8.02
2022-10-23T13:05:59.470Z,8.68
2022-10-23T13:08:33.942Z,9.27
2022-10-23T13:11:00.874Z,8.75
2022-10-23T13:13:27.960Z,7.63
2022-10-23T13:15:54.642Z,8.20
2022-10-23T13:18:23.542Z,8.50
2022-10-23T13:20:55.079Z,8.68
2022-10-23T13:23:35.489Z,9.45
2022-10-23T13:26:21.383Z,9.68
2022-10-23T13:28:48.159Z,9.45
2022-10-23T13:31:14.677Z,8.63
2022-10-23T13:34:01.051Z,8.80
2022-10-23T13:36:35.771Z,9.32
2022-10-23T13:39:13.252Z,10.95
2022-10-23T13:41:41.135Z,13.73
2022-10-23T13:44:11.760Z,16.88
2022-10-23T13:46:39.583Z,13.45
2022-10-23T13:49:06.301Z,10.13
2022-10-23T13:51:42.657Z,9.70
2022-10-23T13:54:22.090Z,10.15
2022-10-23T13:56:49.135Z,11.35
2022-10-23T13:59:16.097Z,12.23
2022-10-23T14:01:43.700Z,12.52
2022-10-23T14:04:11.410Z,13.75
2022-10-23T14:06:38.336Z,15.02
2022-10-23T14:09:06.935Z,14.55
2022-10-23T14:11:35.791Z,14.95
2022-10-23T14:14:02.404Z,15.80
2022-10-23T14:16:32.088Z,17.25
2022-10-23T14:18:58.771Z,16.25
2022-10-23T14:21:25.554Z,16.88
2022-10-23T14:23:54.051Z,19.48
2022-10-23T14:26:27.707Z,19.95
2022-10-23T14:28:55.827Z,21.52
2022-10-23T14:31:23.497Z,21.80
2022-10-23T14:33:56.414Z,23.30
2022-10-23T14:36:24.106Z,23.92
2022-10-23T14:38:56.852Z,24.52
2022-10-23T14:41:24.936Z,24.55
2022-10-23T14:43:52.099Z,24.42
2022-10-23T14:46:21.693Z,30.60
2022-10-23T14:48:50.979Z,35.55
2022-10-23T14:51:28.366Z,33.85
2022-10-23T14:54:01.494Z,34.53
2022-10-23T14:56:33.852Z,34.45
2022-10-23T14:59:03.932Z,33.83
2022-10-23T15:01:42.282Z,34.88
2022-10-23T15:04:12.014Z,33.33
2022-10-23T15:06:38.767Z,36.05
2022-10-23T15:09:05.636Z,32.97
2022-10-23T15:11:32.995Z,34.65
2022-10-23T15:14:00.318Z,32.85
2022-10-23T15:16:27.388Z,36.10
2022-10-23T15:18:57.049Z,36.38
2022-10-23T15:21:24.217Z,35.55
2022-10-23T15:23:50.924Z,33.15
2022-10-23T15:26:22.090Z,32.63
2022-10-23T15:28:56.754Z,31.00
2022-10-23T15:31:41.046Z,34.53
2022-10-23T15:34:10.398Z,29.98
2022-10-23T15:36:37.308Z,31.52
2022-10-23T15:39:09.035Z,30.90
2022-10-23T15:41:37.228Z,29.58
2022-10-23T15:44:05.989Z,30.77
2022-10-23T15:46:33.263Z,31.50
2022-10-23T15:48:59.926Z,31.25
2022-10-23T15:51:27.446Z,29.70
2022-10-23T15:53:56.925Z,30.27
2022-10-23T15:56:24.709Z,30.15
2022-10-23T15:58:51.374Z,27.65
2022-10-23T16:01:18.611Z,27.83
2022-10-23T16:03:45.611Z,25.75
2022-10-23T16:06:14.879Z,22.95
2022-10-23T16:08:44.300Z,24.58
2022-10-23T16:11:19.773Z,23.67
2022-10-23T16:13:47.667Z,24.38
2022-10-23T16:16:14.977Z,22.05
2022-10-23T16:18:43.725Z,22.85
2022-10-23T16:21:21.439Z,21.52
2022-10-23T16:23:48.887Z,22.45
2022-10-23T16:26:16.447Z,20.73
2022-10-23T16:28:47.090Z,19.98
2022-10-23T16:31:20.657Z,19.52
2022-10-23T16:33:48.802Z,20.55
2022-10-23T16:36:16.423Z,21.45
2022-10-23T16:38:43.197Z,20.92
2022-10-23T16:41:10.082Z,20.42
2022-10-23T16:43:37.049Z,22.08
2022-10-23T16:46:24.191Z,24.20
2022-10-23T16:48:51.831Z,22.98
2022-10-23T16:51:22.546Z,25.40
2022-10-23T16:53:49.628Z,23.70
2022-10-23T16:56:18.575Z,23.73
2022-10-23T16:58:45.369Z,21.33
2022-10-23T17:01:16.219Z,24.52
2022-10-23T17:03:47.817Z,25.02
2022-10-23T17:06:17.688Z,27.05
2022-10-23T17:11:19.891Z,24.35
2022-10-23T17:14:17.605Z,24.45
2022-10-23T17:16:47.749Z,22.80
2022-10-23T17:19:39.730Z,21.80
2022-10-23T17:22:02.774Z,22.90
2022-10-23T17:24:30.507Z,22.42
2022-10-23T17:26:57.209Z,21.52
2022-10-23T17:29:23.872Z,22.55
2022-10-23T17:31:51.771Z,22.23
2022-10-23T17:34:21.570Z,23.85
2022-10-23T17:39:20.083Z,22.52
2022-10-23T17:41:47.260Z,23.40
2022-10-23T17:44:14.274Z,23.58
2022-10-23T17:46:40.968Z,21.30
2022-10-23T17:49:07.680Z,22.42
2022-10-23T17:51:37.497Z,22.30
2022-10-23T17:56:34.702Z,20.75
2022-10-23T17:59:06.868Z,20.35
2022-10-23T18:01:33.982Z,18.73
2022-10-23T18:04:03.690Z,19.98
2022-10-23T18:06:41.984Z,19.58
2022-10-23T18:09:08.619Z,20.38
2022-10-23T18:11:37.560Z,19.45
2022-10-23T18:14:06.852Z,19.80
2022-10-23T18:16:35.027Z,19.92
2022-10-23T18:19:02.155Z,20.92
2022-10-23T18:21:28.938Z,20.48
2022-10-23T18:23:55.598Z,20.77
2022-10-23T18:26:28.335Z,20.40
2022-10-23T18:28:57.570Z,19.65
2022-10-23T18:31:27.071Z,20.63
2022-10-23T18:33:58.783Z,19.15
2022-10-23T18:36:28.570Z,18.77
2022-10-23T18:41:25.122Z,18.58
2022-10-23T18:43:52.683Z,19.05
2022-10-23T18:46:20.508Z,19.77
2022-10-23T18:48:53.130Z,18.15
2022-10-23T18:51:30.979Z,18.92
2022-10-23T18:54:00.098Z,17.75
2022-10-23T18:56:27.826Z,17.92
2022-10-23T18:59:00.117Z,18.48
2022-10-23T19:01:27.778Z,18.77
2022-10-23T19:06:23.968Z,18.13
2022-10-23T19:08:51.070Z,17.33
2022-10-23T19:11:21.088Z,18.02
2022-10-23T19:13:47.920Z,16.95
2022-10-23T19:16:18.323Z,18.00
2022-10-23T19:18:57.762Z,17.48
2022-10-23T19:21:31.414Z,17.17
2022-10-23T19:24:01.835Z,17.73
2022-10-23T19:26:30.132Z,19.25
2022-10-23T19:28:57.494Z,18.20
2022-10-23T19:31:26.552Z,19.52
2022-10-23T19:33:53.598Z,20.13
2022-10-23T19:36:23.457Z,20.63
2022-10-23T19:38:50.521Z,20.05
2022-10-23T19:41:18.330Z,17.83
2022-10-23T19:43:45.200Z,19.10
2022-10-23T19:46:12.896Z,18.17
2022-10-23T19:48:44.444Z,19.85
2022-10-23T19:51:13.298Z,20.40
2022-10-23T19:53:42.296Z,19.90
2022-10-23T19:56:11.147Z,22.93
2022-10-23T19:58:38.539Z,23.63
2022-10-23T20:01:11.459Z,22.90
2022-10-23T20:03:39.700Z,23.98
2022-10-23T20:06:10.551Z,22.15
2022-10-23T20:08:37.448Z,20.77
2022-10-23T20:11:04.557Z,20.30
2022-10-23T20:13:31.175Z,19.05
2022-10-23T20:15:57.803Z,18.83
2022-10-23T20:18:25.920Z,19.15
2022-10-23T20:20:53.592Z,19.08
2022-10-23T20:23:20.233Z,17.73
2022-10-23T20:25:47.980Z,17.50
2022-10-23T20:28:15.320Z,18.15
2022-10-23T20:30:44.508Z,18.67
2022-10-23T20:33:11.248Z,18.33
2022-10-23T20:35:40.342Z,20.30
2022-10-23T20:38:07.667Z,20.00
2022-10-23T20:40:34.550Z,21.25
2022-10-23T20:43:01.147Z,21.02
2022-10-23T20:45:27.796Z,21.58
2022-10-23T20:47:55.483Z,21.55
2022-10-23T20:50:23.846Z,19.90
2022-10-23T20:52:50.893Z,19.70
2022-10-23T20:55:17.801Z,19.13
2022-10-23T20:57:44.747Z,18.52
2022-10-23T21:00:12.056Z,17.17
2022-10-23T21:02:38.712Z,18.05
2022-10-23T21:05:05.827Z,18.45
2022-10-23T21:07:32.402Z,18.23
2022-10-23T21:09:59.422Z,16.80
2022-10-23T21:12:26.033Z,16.70
2022-10-23T21:14:53.622Z,16.35
2022-10-23T21:17:20.944Z,17.70
2022-10-23T21:19:47.660Z,18.00
2022-10-23T21:22:14.262Z,16.95
2022-10-23T21:24:40.900Z,17.38
2022-10-23T21:27:07.553Z,16.45
2022-10-23T21:29:34.354Z,17.58
2022-10-23T21:32:01.776Z,17.90
2022-10-23T21:34:29.785Z,16.17
2022-10-23T21:37:13.520Z,17.63
2022-10-23T21:39:44.657Z,17.73
2022-10-23T21:42:12.635Z,17.48
2022-10-23T21:44:39.278Z,16.23
2022-10-23T21:47:06.023Z,17.55
2022-10-23T21:49:32.593Z,17.65
2022-10-23T21:51:59.193Z,17.75
2022-10-23T21:54:25.830Z,18.08
2022-10-23T21:56:55.694Z,16.00
2022-10-23T22:01:52.058Z,14.48
2022-10-23T22:04:19.908Z,14.25
2022-10-23T22:06:48.421Z,15.10
2022-10-23T22:09:17.844Z,15.57
2022-10-23T22:11:44.506Z,15.57
2022-10-23T22:14:11.106Z,15.27
2022-10-23T22:16:37.977Z,16.25
2022-10-23T22:19:04.638Z,17.20
2022-10-23T22:21:31.714Z,16.90
2022-10-23T22:24:00.267Z,16.23
2022-10-23T22:26:30.379Z,17.00
2022-10-23T22:28:59.842Z,17.33
2022-10-23T22:31:30.137Z,17.35
2022-10-23T22:33:57.285Z,16.50
2022-10-23T22:36:24.844Z,16.85
2022-10-23T22:38:51.620Z,17.20
2022-10-23T22:41:18.459Z,16.80
2022-10-23T22:43:45.100Z,16.00
2022-10-23T22:46:11.648Z,17.17
2022-10-23T22:48:38.568Z,17.00
2022-10-23T22:51:08.869Z,15.98
2022-10-23T22:53:35.922Z,16.98
2022-10-23T22:56:06.783Z,17.30
2022-10-23T22:58:33.400Z,16.48
2022-10-23T23:01:09.107Z,16.85
2022-10-23T23:03:37.165Z,17.25
2022-10-23T23:06:05.633Z,16.95
2022-10-23T23:08:33.924Z,16.52
2022-10-23T23:11:01.328Z,17.88
2022-10-23T23:13:28.448Z,17.00
2022-10-23T23:15:55.669Z,17.90
2022-10-23T23:18:22.888Z,17.13
2022-10-23T23:20:50.096Z,17.38
2022-10-23T23:23:17.751Z,17.23
2022-10-23T23:25:49.033Z,17.35
2022-10-23T23:28:19.003Z,17.10
2022-10-23T23:33:23.189Z,16.50
2022-10-23T23:35:49.798Z,16.27
2022-10-23T23:38:16.391Z,16.38
2022-10-23T23:40:51.930Z,15.90
2022-10-23T23:43:18.775Z,15.55
2022-10-23T23:45:45.772Z,16.80
2022-10-23T23:48:15.072Z,17.75
2022-10-23T23:50:42.426Z,18.48
2022-10-23T23:53:12.170Z,18.52
2022-10-23T23:55:38.909Z,16.90
2022-10-23T23:58:05.619Z,18.17
